Main page
METAR-TAF:

METAR-TAF

Airports :

Namibe Airport

Namibe, Angola

latitude: 15-15-40S, longitude: 12-08-50E, elevation: 64 m

Current weather observation

The report was made 14 hours and 38 minutes ago, at 16:00 UTC
Wind 12 kt from the West/Southwest
Temperature 27°C
Humidity 74%
Pressure 1010 hPa
Visibility 10 km or more
Few clouds at a height of 1200 ft
Scattered clouds at a height of 3000 ft

METAR: FNMO 221600Z 25012KT 9999 FEW012 SCT030 27/22 Q1010

Time: 07:38 (06:38 UTC)

Forecast

The report was made 7 hours and 53 minutes ago, at 22:45 UTC
Forecast valid from 23 at 00 UTC to 23 at 12 UTC
Wind 4 kt from the Southwest
Visibility: 8000 m
Overcast at a height of 1800 ft
Becoming
from 23 at 07 UTC to 23 at 10 UTC
Wind 12 kt from the West/Northwest
Visibility 10 km or more
Scattered clouds at a height of 2200 ft

TAF: FNMO 222245Z 2300/2312 23004KT 8000 OVC018 BECMG 2307/2310 30012KT 9999 SCT022

Weather observations and forecasts of more than 4000 airports (METAR and TAF reports).

The available stations are represented by yellow and red dots on the map.

Hover mouse over dot to see the name of the station.

Then click to see weather observations and forecasts.

To change the map : click on the green buttons with a black cross to zoom in, on the green button with a dash to zoom out, or on the green arrows for adjacent maps.


METAR-TAF: